Delton, Michigan
Current Conditions -  °F | °C
As of 5:53 AM on Thursday 18 Dec 2014 (Local Time) from KBTL Reporting Station
Overcast Overcast  
Wind Chill: 22°   Ceiling: 2000
Heat Index: 30°   Visibility: 10mi
Dew Point: 23°   Wind: 8mph
Humidity: 75%   Direction: 260°W
Pressure: 30.2"   Gusts: NA
Location:  42.5°N, 85.41°W
Report Text: KBTL 181053Z 26007KT 10SM OVC020 M01/M05 A3020 RMK AO2 SLP239 T10111050
Loading
Personal Weather Stations






























Interactive Weather Map New forecast layout! Learn more

10-Day Weather Forecast

Advertisements
Track Severe Weather on mobile